Time;durP1;ratioP1;P1;durP2;ratioP2;P2;SDS_P1;SDS_P2;PMS_P1;PMS_P2;Temp;Humidity;BMP_temperature;BMP_pressure;BME280_temperature;BME280_humidity;BME280_pressure;Samples;Min_cycle;Max_cycle;Signal;HPM_P1;HPM_P2
2021/04/10 00:01:22;;;;;;;;;;;;;;;18.01;62.54;102067.88;5013419;28;1472;-57
2021/04/10 00:03:47;;;;;;;;;;;;;;;18.01;62.71;102065.22;5006660;28;1469;-57
2021/04/10 00:06:12;;;;;;;;;;;;;;;17.98;63.02;102062.72;5014383;28;1894;-65
2021/04/10 00:08:38;;;;;;;;;;;;;;;17.97;62.39;102052.97;5013272;28;1556;-57
2021/04/10 00:11:03;;;;;;;;;;;;;;;17.97;63.22;102047.63;5013203;28;1550;-65
2021/04/10 00:13:29;;;;;;;;;;;;;;;17.96;62.47;102045.91;5014941;28;1589;-57
2021/04/10 00:15:54;;;;;;;;;;;;;;;17.96;62.39;102040.53;5016945;28;1550;-65
2021/04/10 00:18:20;;;;;;;;;;;;;;;17.97;63.05;102039.59;5017850;28;818;-57
2021/04/10 00:20:45;;;;;;;;;;;;;;;17.94;62.92;102039.78;5016941;28;1438;-64
2021/04/10 00:23:11;;;;;;;;;;;;;;;17.97;62.27;102047.63;5016949;28;1477;-65
2021/04/10 00:25:36;;;;;;;;;;;;;;;17.95;62.58;102049.53;5016326;28;1922;-65
2021/04/10 00:28:02;;;;;;;;;;;;;;;17.92;62.80;102034.53;5016379;28;1410;-65
2021/04/10 00:30:27;;;;;;;;;;;;;;;17.94;62.53;102042.47;5016761;28;1554;-64
2021/04/10 00:32:53;;;;;;;;;;;;;;;17.88;62.92;102041.88;5017593;28;1311;-65
2021/04/10 00:35:18;;;;;;;;;;;;;;;17.89;62.88;102032.91;5016438;28;1546;-57
2021/04/10 00:37:43;;;;;;;;;;;;;;;17.89;62.60;102038.25;5016766;28;1585;-57
2021/04/10 00:40:09;;;;;;;;;;;;;;;17.85;62.30;102020.69;5016635;28;1547;-57
2021/04/10 00:42:35;;;;;;;;;;;;;;;17.85;62.75;102044.75;5016277;28;1516;-65
2021/04/10 00:45:01;;;;;;;;;;;;;;;17.85;62.96;102033.22;5016525;28;1897;-57
2021/04/10 00:47:26;;;;;;;;;;;;;;;17.82;62.88;102023.50;5017277;28;802;-58
2021/04/10 00:49:52;;;;;;;;;;;;;;;17.81;63.23;102027.16;5016497;28;1713;-57
2021/04/10 00:52:18;;;;;;;;;;;;;;;17.80;62.52;102036.13;5016129;28;1450;-65
2021/04/10 00:54:44;;;;;;;;;;;;;;;17.78;62.69;102019.31;5016416;28;1558;-64
2021/04/10 00:57:10;;;;;;;;;;;;;;;17.77;63.31;102028.31;5016983;28;1315;-57
2021/04/10 00:59:35;;;;;;;;;;;;;;;17.79;62.39;102021.03;5016467;28;1539;-65
2021/04/10 01:02:01;;;;;;;;;;;;;;;17.78;62.50;102030.00;5017077;28;1532;-65
2021/04/10 01:04:26;;;;;;;;;;;;;;;17.77;62.75;102024.78;5016252;28;1906;-58
2021/04/10 01:06:52;;;;;;;;;;;;;;;17.74;62.87;102014.25;5016189;28;1597;-65
2021/04/10 01:09:17;;;;;;;;;;;;;;;17.72;63.27;102011.66;5016927;28;805;-58
2021/04/10 01:12:01;;;;;;;;;;;;;;;17.72;62.51;102018.84;5015386;28;1509;-57
2021/04/10 01:14:32;;;;;;;;;;;;;;;17.73;62.77;102020.56;5016560;28;900;-57
2021/04/10 01:17:09;;;;;;;;;;;;;;;17.72;63.16;102022.38;5015875;28;1768;-58
2021/04/10 01:19:43;;;;;;;;;;;;;;;17.73;62.62;102024.09;5016063;28;1669;-57
2021/04/10 01:22:20;;;;;;;;;;;;;;;17.71;62.56;102020.66;5015310;28;1339;-65
2021/04/10 01:24:48;;;;;;;;;;;;;;;17.70;62.27;102013.59;5015453;28;1984;-57
2021/04/10 01:27:33;;;;;;;;;;;;;;;17.67;62.66;102008.44;5011829;28;1547;-65
2021/04/10 01:30:05;;;;;;;;;;;;;;;17.66;62.72;102012.91;5009393;28;1529;-58
2021/04/10 01:32:33;;;;;;;;;;;;;;;17.66;63.29;102002.22;5016152;28;1314;-57
2021/04/10 01:35:10;;;;;;;;;;;;;;;17.70;62.91;102008.22;5015806;28;1767;-65
2021/04/10 01:37:39;;;;;;;;;;;;;;;17.68;62.42;102004.78;5020677;28;1547;-65
2021/04/10 01:40:05;;;;;;;;;;;;;;;17.68;63.26;101994.09;5010925;28;1376;-57
2021/04/10 01:42:31;;;;;;;;;;;;;;;17.67;62.45;102009.28;5015195;28;1456;-65
2021/04/10 01:44:58;;;;;;;;;;;;;;;17.68;63.10;101999.44;5015297;28;1913;-57
2021/04/10 01:47:24;;;;;;;;;;;;;;;17.66;62.63;102001.34;5016116;28;1318;-57
2021/04/10 01:49:50;;;;;;;;;;;;;;;17.65;62.55;102005.00;5015258;28;1670;-65
2021/04/10 01:52:16;;;;;;;;;;;;;;;17.63;62.40;101990.88;5011465;28;1540;-65
2021/04/10 01:54:41;;;;;;;;;;;;;;;17.63;62.35;101996.22;5015547;28;1436;-57
2021/04/10 01:57:07;;;;;;;;;;;;;;;17.62;62.04;102003.34;5015898;28;1322;-65
2021/04/10 01:59:34;;;;;;;;;;;;;;;17.60;62.56;101996.41;5015366;28;1465;-65
2021/04/10 02:01:59;;;;;;;;;;;;;;;17.62;63.20;101994.47;5013592;23;1993;-47
2021/04/10 02:04:26;;;;;;;;;;;;;;;17.63;62.96;101997.06;4990306;28;1918;-47
2021/04/10 02:07:06;;;;;;;;;;;;;;;17.61;62.34;102003.47;4976624;28;1603;-47
2021/04/10 02:09:33;;;;;;;;;;;;;;;17.58;63.36;101992.97;4994794;28;992;-47
2021/04/10 02:11:59;;;;;;;;;;;;;;;17.56;62.61;101992.19;5014477;23;3664;-58
2021/04/10 02:14:25;;;;;;;;;;;;;;;17.56;62.64;101993.03;5003364;28;1521;-65
2021/04/10 02:16:50;;;;;;;;;;;;;;;17.58;62.50;101987.59;5003574;28;1528;-57
2021/04/10 02:19:16;;;;;;;;;;;;;;;17.59;63.27;101998.22;5003832;28;1589;-65
2021/04/10 02:21:42;;;;;;;;;;;;;;;17.55;63.30;101994.03;5003175;28;1425;-57
2021/04/10 02:24:08;;;;;;;;;;;;;;;17.55;62.86;101994.03;5006593;28;1999;-65
2021/04/10 02:26:33;;;;;;;;;;;;;;;17.56;63.08;101984.16;5007345;28;1472;-57
2021/04/10 02:28:59;;;;;;;;;;;;;;;17.54;62.85;101996.78;4992334;28;1181;-65
2021/04/10 02:31:27;;;;;;;;;;;;;;;17.54;62.95;101997.63;5000432;28;1658;-57
2021/04/10 02:33:55;;;;;;;;;;;;;;;17.56;62.93;101994.88;5010455;28;1536;-57
2021/04/10 02:36:23;;;;;;;;;;;;;;;17.79;62.34;102006.81;5007436;28;1489;-57
2021/04/10 02:38:49;;;;;;;;;;;;;;;18.30;61.02;101991.03;5002530;28;1523;-57
2021/04/10 02:41:24;;;;;;;;;;;;;;;19.28;58.45;101983.53;5009856;28;1320;-57
2021/04/10 02:43:56;;;;;;;;;;;;;;;19.45;58.25;101980.50;5001421;28;1836;-65
2021/04/10 02:46:34;;;;;;;;;;;;;;;19.29;58.56;101993.28;5001158;28;1922;-57
2021/04/10 02:49:01;;;;;;;;;;;;;;;19.56;57.73;101982.44;5009820;28;1670;-65
2021/04/10 02:51:35;;;;;;;;;;;;;;;19.57;57.65;101994.03;5002346;28;1566;-64
2021/04/10 02:54:01;;;;;;;;;;;;;;;19.52;57.35;101985.44;5002948;28;1485;-65
2021/04/10 02:56:27;;;;;;;;;;;;;;;19.37;58.22;101987.38;5002311;28;855;-65
2021/04/10 02:58:54;;;;;;;;;;;;;;;19.47;58.03;101986.63;5009462;28;1638;-57
2021/04/10 03:01:20;;;;;;;;;;;;;;;19.54;57.56;101973.66;5002137;28;1496;-58
2021/04/10 03:03:46;;;;;;;;;;;;;;;19.40;57.72;101974.63;5003481;28;1409;-58
2021/04/10 03:06:12;;;;;;;;;;;;;;;19.47;58.34;101983.09;5002440;28;1898;-58
2021/04/10 03:08:40;;;;;;;;;;;;;;;19.55;57.76;101985.22;5003276;28;1476;-65
2021/04/10 03:11:05;;;;;;;;;;;;;;;19.60;57.73;101977.72;5002762;28;1496;-65
2021/04/10 03:13:31;;;;;;;;;;;;;;;19.56;57.64;101993.19;5005030;28;1560;-65
2021/04/10 03:15:57;;;;;;;;;;;;;;;19.58;57.67;101988.56;5002723;28;1421;-65
2021/04/10 03:18:23;;;;;;;;;;;;;;;19.68;57.44;101991.44;5006443;28;829;-57
2021/04/10 03:20:48;;;;;;;;;;;;;;;19.66;57.69;101988.00;5009153;28;1495;-58
2021/04/10 03:23:14;;;;;;;;;;;;;;;19.66;57.60;101977.28;5007036;28;1492;-57
2021/04/10 03:25:40;;;;;;;;;;;;;;;19.69;57.65;101990.44;5002208;28;1910;-65
2021/04/10 03:28:06;;;;;;;;;;;;;;;19.75;57.23;101995.41;5018745;28;1562;-57
2021/04/10 03:30:31;;;;;;;;;;;;;;;19.76;57.53;101993.59;5018274;28;1508;-57
2021/04/10 03:32:57;;;;;;;;;;;;;;;19.76;57.62;101991.78;5007349;28;1303;-65
2021/04/10 03:35:26;;;;;;;;;;;;;;;19.70;57.49;101999.38;5009601;28;1520;-64
2021/04/10 03:37:53;;;;;;;;;;;;;;;19.79;57.49;102004.09;4999563;28;1550;-57
2021/04/10 03:40:18;;;;;;;;;;;;;;;19.87;56.59;101996.34;5003816;28;1581;-65
2021/04/10 03:42:44;;;;;;;;;;;;;;;19.92;56.96;101993.34;5002802;28;1461;-57
2021/04/10 03:45:12;;;;;;;;;;;;;;;19.92;56.64;102002.25;5003131;28;1890;-57
2021/04/10 03:47:37;;;;;;;;;;;;;;;20.00;56.42;102004.38;5006852;28;860;-57
2021/04/10 03:50:04;;;;;;;;;;;;;;;20.02;56.92;101997.09;5008006;28;1740;-61
2021/04/10 03:52:30;;;;;;;;;;;;;;;20.00;56.69;102005.25;5008195;28;1425;-61
2021/04/10 03:54:56;;;;;;;;;;;;;;;20.07;56.66;102005.63;5006922;28;1504;-57
2021/04/10 03:57:21;;;;;;;;;;;;;;;19.40;58.28;102004.13;5009065;28;871;-58
2021/04/10 03:59:47;;;;;;;;;;;;;;;19.03;59.41;102012.03;5014264;28;1584;-58
2021/04/10 04:02:13;;;;;;;;;;;;;;;18.89;59.99;102028.22;5011970;28;1533;-54
2021/04/10 04:04:38;;;;;;;;;;;;;;;18.73;60.28;102033.72;5006177;28;1961;-59
2021/04/10 04:07:03;;;;;;;;;;;;;;;18.63;60.50;102025.44;5009212;28;1441;-54
2021/04/10 04:09:29;;;;;;;;;;;;;;;18.54;60.79;102019.81;5014755;28;1550;-58
2021/04/10 04:11:54;;;;;;;;;;;;;;;18.45;60.61;102026.66;5013172;28;1327;-58
2021/04/10 04:14:20;;;;;;;;;;;;;;;18.45;60.58;102021.31;5012460;28;1662;-58
2021/04/10 04:16:45;;;;;;;;;;;;;;;18.39;60.92;102035.09;5012518;28;1647;-58
2021/04/10 04:19:10;;;;;;;;;;;;;;;18.36;60.23;102021.91;5006672;28;1444;-57
2021/04/10 04:21:36;;;;;;;;;;;;;;;18.37;60.60;102034.34;5012173;28;1467;-59
2021/04/10 04:24:01;;;;;;;;;;;;;;;18.45;60.49;102032.88;5010216;28;1434;-57
2021/04/10 04:26:27;;;;;;;;;;;;;;;18.93;59.16;102016.31;5008794;28;1971;-55
2021/04/10 04:28:52;;;;;;;;;;;;;;;19.81;56.72;102024.50;5013339;28;1331;-59
2021/04/10 04:31:20;;;;;;;;;;;;;;;20.27;55.57;102021.16;5012032;28;1776;-56
2021/04/10 04:33:45;;;;;;;;;;;;;;;20.54;54.74;102032.66;5002115;28;1474;-57
2021/04/10 04:36:11;;;;;;;;;;;;;;;20.58;54.61;102029.63;5006339;28;1367;-63
2021/04/10 04:38:36;;;;;;;;;;;;;;;20.33;55.53;102037.78;5010819;28;1375;-57
2021/04/10 04:41:01;;;;;;;;;;;;;;;20.18;55.30;102032.56;5013651;28;1554;-59
2021/04/10 04:43:27;;;;;;;;;;;;;;;20.10;55.08;102024.22;5012031;28;1493;-56
2021/04/10 04:45:52;;;;;;;;;;;;;;;20.03;55.44;102037.25;5010769;28;1945;-56
2021/04/10 04:48:18;;;;;;;;;;;;;;;20.04;55.24;102038.09;5015559;28;1303;-56
2021/04/10 04:50:43;;;;;;;;;;;;;;;19.99;54.85;102034.88;5010623;28;1780;-57
2021/04/10 04:53:08;;;;;;;;;;;;;;;20.05;55.24;102051.44;5008554;28;1573;-57
2021/04/10 04:55:34;;;;;;;;;;;;;;;20.53;53.29;102034.50;5006741;28;1409;-55
2021/04/10 04:57:59;;;;;;;;;;;;;;;22.20;49.41;102054.72;5015121;28;978;-55
2021/04/10 05:00:25;;;;;;;;;;;;;;;23.33;47.12;102036.25;5010740;28;1426;-55
2021/04/10 05:02:50;;;;;;;;;;;;;;;24.14;45.18;102036.34;5004576;28;1607;-56
2021/04/10 05:05:16;;;;;;;;;;;;;;;24.30;44.80;102029.56;5004992;28;1894;-59
2021/04/10 05:07:41;;;;;;;;;;;;;;;24.04;45.25;102030.06;5011118;28;1425;-56
2021/04/10 05:10:07;;;;;;;;;;;;;;;23.92;45.33;102031.16;5007398;28;1491;-56
2021/04/10 05:12:32;;;;;;;;;;;;;;;23.79;45.62;102032.25;5005841;28;1449;-56
2021/04/10 05:14:58;;;;;;;;;;;;;;;23.59;45.97;102041.22;5009982;28;1442;-56
2021/04/10 05:17:23;;;;;;;;;;;;;;;23.18;46.75;102029.53;5009223;28;1186;-59
2021/04/10 05:19:48;;;;;;;;;;;;;;;22.50;48.33;102047.81;5000449;28;1501;-56
2021/04/10 05:22:14;;;;;;;;;;;;;;;21.45;50.60;102048.16;5006762;28;1499;-56
2021/04/10 05:24:39;;;;;;;;;;;;;;;20.65;52.34;102047.03;5003846;28;1981;-59
2021/04/10 05:27:05;;;;;;;;;;;;;;;20.25;53.79;102043.72;5003123;28;1857;-56
2021/04/10 05:29:30;;;;;;;;;;;;;;;20.09;53.92;102059.25;5002578;28;1458;-59
2021/04/10 05:31:55;;;;;;;;;;;;;;;20.00;54.73;102055.41;5005870;28;987;-56
2021/04/10 05:34:21;;;;;;;;;;;;;;;19.94;55.20;102050.47;5010675;28;1461;-59
2021/04/10 05:36:46;;;;;;;;;;;;;;;19.99;54.67;102051.00;5007917;28;1448;-59
2021/04/10 05:39:11;;;;;;;;;;;;;;;19.90;55.11;102041.78;5009696;28;1400;-56
2021/04/10 05:41:37;;;;;;;;;;;;;;;19.87;55.16;102042.00;5007014;28;1424;-58
2021/04/10 05:44:02;;;;;;;;;;;;;;;19.90;55.05;102049.00;5006939;28;1069;-56
2021/04/10 05:46:27;;;;;;;;;;;;;;;19.87;56.92;102055.41;5010003;28;1949;-56
2021/04/10 05:48:53;;;;;;;;;;;;;;;19.86;57.25;102046.50;4655349;28;10000381;-58
2021/04/10 05:51:18;;;;;;;;;;;;;;;19.89;60.27;102041.88;4997198;28;1581;-59
2021/04/10 05:53:45;;;;;;;;;;;;;;;20.15;59.15;102035.47;4995837;28;1304;-61
2021/04/10 05:56:11;;;;;;;;;;;;;;;20.14;58.71;102041.81;5001983;28;1335;-61
2021/04/10 05:58:37;;;;;;;;;;;;;;;19.96;59.58;102033.28;4998512;28;1484;-61
2021/04/10 06:01:02;;;;;;;;;;;;;;;19.58;58.62;102046.75;4998188;28;1444;-59
2021/04/10 06:03:28;;;;;;;;;;;;;;;19.66;59.40;102041.69;5004483;28;1363;-59
2021/04/10 06:05:54;;;;;;;;;;;;;;;19.88;58.46;102040.19;4999085;28;1902;-59
2021/04/10 06:08:19;;;;;;;;;;;;;;;19.94;58.47;102031.69;5005337;28;1501;-59
2021/04/10 06:10:44;;;;;;;;;;;;;;;19.86;59.34;102041.13;4999610;28;1546;-59
2021/04/10 06:13:10;;;;;;;;;;;;;;;19.84;59.38;102034.19;4996177;28;1389;-59
2021/04/10 06:15:36;;;;;;;;;;;;;;;19.76;59.84;102040.09;5002198;28;1766;-59
2021/04/10 06:18:01;;;;;;;;;;;;;;;19.69;59.80;102041.44;5006981;28;1379;-59
2021/04/10 06:20:27;;;;;;;;;;;;;;;19.68;60.13;102039.75;5003310;28;1534;-62
2021/04/10 06:22:52;;;;;;;;;;;;;;;19.60;60.37;102040.28;5006644;28;1331;-59
2021/04/10 06:25:18;;;;;;;;;;;;;;;19.54;60.40;102037.19;5005430;28;1910;-58
2021/04/10 06:27:43;;;;;;;;;;;;;;;19.53;61.42;102040.81;4997067;28;1522;-60
2021/04/10 06:30:09;;;;;;;;;;;;;;;19.51;61.26;102046.28;5007392;28;1394;-60
2021/04/10 06:32:35;;;;;;;;;;;;;;;19.46;60.99;102045.78;5011877;28;1247;-64
2021/04/10 06:35:00;;;;;;;;;;;;;;;19.41;61.13;102038.03;5008746;28;1485;-58
2021/04/10 06:37:26;;;;;;;;;;;;;;;19.44;61.14;102040.50;4656022;28;9999961;-59
2021/04/10 06:39:52;;;;;;;;;;;;;;;19.37;61.28;102036.53;4995813;28;1565;-59
2021/04/10 06:42:18;;;;;;;;;;;;;;;19.41;61.75;102040.72;4998388;28;1440;-59
2021/04/10 06:44:43;;;;;;;;;;;;;;;19.44;61.78;102043.19;5010461;28;1965;-59
2021/04/10 06:47:10;;;;;;;;;;;;;;;19.42;61.53;102045.13;5004565;28;1380;-58
2021/04/10 06:49:36;;;;;;;;;;;;;;;19.44;61.13;102028.94;5001095;28;1564;-57
2021/04/10 06:52:01;;;;;;;;;;;;;;;19.33;60.93;102029.66;4997931;28;1425;-67
2021/04/10 06:54:30;;;;;;;;;;;;;;;19.24;59.90;102030.31;4994723;28;1406;-62
2021/04/10 06:57:00;;;;;;;;;;;;;;;19.21;58.50;102031.38;3967896;28;10001271;-58
2021/04/10 06:59:40;;;;;;;;;;;;;;;19.16;57.96;102024.59;5016454;28;1677;-57
2021/04/10 07:02:09;;;;;;;;;;;;;;;19.15;56.66;102022.91;5024693;28;1511;-57
2021/04/10 07:04:34;;;;;;;;;;;;;;;19.13;56.48;102032.88;5026936;28;1898;-62
2021/04/10 07:07:00;;;;;;;;;;;;;;;19.20;55.75;102026.09;5018576;28;1375;-62
2021/04/10 07:09:26;;;;;;;;;;;;;;;19.24;55.01;102024.94;5020548;28;1512;-57
2021/04/10 07:11:54;;;;;;;;;;;;;;;19.21;55.61;102020.63;5008256;28;1132;-57
2021/04/10 07:14:20;;;;;;;;;;;;;;;19.17;55.68;102023.66;5008587;28;1512;-59
2021/04/10 07:16:45;;;;;;;;;;;;;;;18.90;49.14;102024.59;5022259;28;1658;-57
2021/04/10 07:19:11;;;;;;;;;;;;;;;18.52;51.23;102017.25;5012833;28;1504;-58
2021/04/10 07:21:39;;;;;;;;;;;;;;;18.65;50.16;102023.50;5016469;28;1657;-67
2021/04/10 07:24:04;;;;;;;;;;;;;;;18.88;49.70;102029.19;5018576;28;1501;-59
2021/04/10 07:26:47;;;;;;;;;;;;;;;19.01;50.51;102013.97;5015692;28;2012;-56
2021/04/10 07:29:48;;;;;;;;;;;;;;;19.02;50.34;102021.06;5007075;28;1456;-57
2021/04/10 07:32:33;;;;;;;;;;;;;;;19.04;48.56;102016.47;4939502;29;1567;-58
2021/04/10 07:35:01;;;;;;;;;;;;;;;19.02;47.16;102015.69;4997260;28;1489;-62
2021/04/10 07:37:34;;;;;;;;;;;;;;;19.08;49.20;102022.47;5006706;28;1472;-62
2021/04/10 07:40:00;;;;;;;;;;;;;;;19.11;49.49;102019.56;5002674;28;1543;-59
2021/04/10 07:42:27;;;;;;;;;;;;;;;18.89;50.50;101988.00;5002122;28;1601;-67
2021/04/10 07:44:52;;;;;;;;;;;;;;;19.21;50.85;102014.44;5006908;28;1910;-66
2021/04/10 07:47:18;;;;;;;;;;;;;;;19.21;51.13;102014.44;5009940;28;1295;-57
2021/04/10 07:49:43;;;;;;;;;;;;;;;19.22;51.43;102013.47;5007052;28;1558;-59
2021/04/10 07:52:09;;;;;;;;;;;;;;;19.22;51.90;101994.69;5008093;28;1521;-70
2021/04/10 07:54:34;;;;;;;;;;;;;;;19.23;52.54;102010.66;5001415;28;1590;-59
2021/04/10 07:57:07;;;;;;;;;;;;;;;19.24;52.76;102003.50;5008070;28;1272;-58
2021/04/10 07:59:50;;;;;;;;;;;;;;;19.24;52.75;101992.78;5004663;28;1604;-63
2021/04/10 08:02:16;;;;;;;;;;;;;;;19.28;53.14;101987.06;5004482;28;1672;-63
2021/04/10 08:04:53;;;;;;;;;;;;;;;19.29;53.57;101990.59;5006457;28;1890;-64
2021/04/10 08:07:38;;;;;;;;;;;;;;;19.29;53.79;101993.28;5005593;28;1561;-60
2021/04/10 08:10:05;;;;;;;;;;;;;;;19.28;54.08;101989.75;5006472;28;1922;-62
2021/04/10 08:12:35;;;;;;;;;;;;;;;19.29;54.15;101995.97;5001192;28;1591;-63
2021/04/10 08:15:01;;;;;;;;;;;;;;;19.29;54.20;101995.97;5005056;28;1463;-60
2021/04/10 08:17:32;;;;;;;;;;;;;;;19.34;54.73;101995.63;5005014;28;1308;-60
2021/04/10 08:20:18;;;;;;;;;;;;;;;19.38;54.35;101983.75;4999621;28;1513;-56
2021/04/10 08:22:43;;;;;;;;;;;;;;;19.46;54.78;101973.34;4988673;28;1712;-57
2021/04/10 08:25:10;;;;;;;;;;;;;;;19.53;54.72;101981.78;5000759;28;1918;-63
2021/04/10 08:27:36;;;;;;;;;;;;;;;19.52;55.27;101982.75;5002179;28;1410;-62
2021/04/10 08:30:01;;;;;;;;;;;;;;;19.52;55.87;101980.06;5005688;28;1589;-62
2021/04/10 08:32:27;;;;;;;;;;;;;;;19.47;56.40;101977.72;5002107;28;1677;-58
2021/04/10 08:34:52;;;;;;;;;;;;;;;19.50;56.60;101977.50;4997537;28;1575;-62
2021/04/10 08:37:18;;;;;;;;;;;;;;;19.52;57.17;101974.69;5006448;28;1495;-62
2021/04/10 08:39:46;;;;;;;;;;;;;;;19.52;57.89;101963.97;5006832;28;1328;-60
2021/04/10 08:42:12;;;;;;;;;;;;;;;19.48;58.29;101966.88;5006826;28;1505;-61
2021/04/10 08:44:39;;;;;;;;;;;;;;;19.55;58.05;101974.50;5006780;28;1959;-66
2021/04/10 08:47:04;;;;;;;;;;;;;;;19.55;58.64;101944.97;5006957;28;1446;-64
2021/04/10 08:49:36;;;;;;;;;;;;;;;19.56;59.51;101962.81;5005559;28;1476;-58
2021/04/10 08:52:03;;;;;;;;;;;;;;;19.54;58.67;101956.69;5003644;28;1449;-60
2021/04/10 08:54:31;;;;;;;;;;;;;;;19.46;59.09;101958.09;4999937;28;1251;-64
2021/04/10 08:56:57;;;;;;;;;;;;;;;19.41;58.86;101952.19;5005105;28;1328;-63
2021/04/10 08:59:22;;;;;;;;;;;;;;;19.38;60.29;101952.41;5006647;28;1539;-63
2021/04/10 09:02:08;;;;;;;;;;;;;;;19.37;60.27;101956.06;5007055;28;1516;-60
2021/04/10 09:04:52;;;;;;;;;;;;;;;19.39;60.51;101953.28;5001529;28;1961;-61
2021/04/10 09:07:17;;;;;;;;;;;;;;;19.39;60.60;101934.50;5003565;28;1546;-63
2021/04/10 09:09:46;;;;;;;;;;;;;;;19.10;58.51;101939.22;5013685;28;1421;-61
2021/04/10 09:12:16;;;;;;;;;;;;;;;19.19;59.98;101941.28;5003822;28;1463;-63
2021/04/10 09:14:42;;;;;;;;;;;;;;;19.23;60.83;101940.09;5004992;28;1465;-60
2021/04/10 09:17:08;;;;;;;;;;;;;;;19.22;60.47;101943.75;5004041;28;1530;-60
2021/04/10 09:19:35;;;;;;;;;;;;;;;19.19;60.06;101942.13;5004009;28;1516;-58
2021/04/10 09:22:00;;;;;;;;;;;;;;;19.17;60.26;101929.78;5003367;28;1613;-59
2021/04/10 09:24:29;;;;;;;;;;;;;;;19.22;60.04;101936.56;4996740;28;1926;-57
2021/04/10 09:27:05;;;;;;;;;;;;;;;19.25;59.85;101930.09;5002145;28;1536;-59
2021/04/10 09:29:42;;;;;;;;;;;;;;;19.20;60.04;101926.88;5006331;28;1516;-62
2021/04/10 09:32:08;;;;;;;;;;;;;;;19.16;60.47;101914.66;5007171;28;1383;-61
2021/04/10 09:34:49;;;;;;;;;;;;;;;19.23;60.56;101913.28;5002160;28;1494;-58
2021/04/10 09:37:23;;;;;;;;;;;;;;;19.25;60.40;101924.75;5008287;28;1554;-59
2021/04/10 09:39:55;;;;;;;;;;;;;;;18.97;58.18;101913.28;5002328;28;1519;-59
2021/04/10 09:45:13;;;;;;;;;;;;;;;19.03;57.90;101904.81;5001985;28;1882;-58
2021/04/10 09:47:54;;;;;;;;;;;;;;;19.01;57.41;101904.06;5011091;28;1445;-58
2021/04/10 09:50:20;;;;;;;;;;;;;;;18.98;57.71;101898.03;5009741;28;1666;-63
2021/04/10 09:52:52;;;;;;;;;;;;;;;19.03;56.31;101906.63;5001498;28;1627;-64
2021/04/10 09:55:18;;;;;;;;;;;;;;;19.10;57.27;101902.56;5021537;28;1479;-60
2021/04/10 09:57:44;;;;;;;;;;;;;;;19.06;50.42;101898.41;5005605;28;1244;-64
2021/04/10 10:00:09;;;;;;;;;;;;;;;19.00;56.37;101883.59;5005873;28;1453;-59
2021/04/10 10:02:35;;;;;;;;;;;;;;;18.80;51.01;101882.31;5004531;28;1526;-58
2021/04/10 10:05:00;;;;;;;;;;;;;;;18.84;53.16;101893.66;5001182;28;1879;-65
2021/04/10 10:07:26;;;;;;;;;;;;;;;18.67;52.62;101884.09;5004434;28;1449;-66
2021/04/10 10:10:07;;;;;;;;;;;;;;;18.65;50.66;101884.19;5005284;28;1449;-58
2021/04/10 10:12:32;;;;;;;;;;;;;;;18.61;54.65;101874.66;5000259;28;1640;-65
2021/04/10 10:14:57;;;;;;;;;;;;;;;18.52;50.55;101885.13;5005512;28;1461;-58
2021/04/10 10:17:29;;;;;;;;;;;;;;;18.55;53.50;101869.72;5012808;28;1632;-64
2021/04/10 10:20:10;;;;;;;;;;;;;;;18.51;53.66;101886.97;5005149;28;1440;-58
2021/04/10 10:22:35;;;;;;;;;;;;;;;18.46;54.38;101873.00;5007348;28;1763;-65
2021/04/10 10:25:02;;;;;;;;;;;;;;;18.20;50.23;101799.81;5008858;28;1922;-66
2021/04/10 10:27:38;;;;;;;;;;;;;;;18.56;47.02;101871.44;5009797;28;1428;-64
2021/04/10 10:30:24;;;;;;;;;;;;;;;18.54;49.99;101865.31;5009970;28;1481;-58
2021/04/10 10:32:50;;;;;;;;;;;;;;;18.47;51.57;101864.88;5005692;28;1139;-60
2021/04/10 10:35:16;;;;;;;;;;;;;;;18.49;49.15;101859.44;5006163;28;1520;-58
2021/04/10 10:37:45;;;;;;;;;;;;;;;18.34;48.77;101850.59;5003040;28;1429;-55
2021/04/10 10:40:19;;;;;;;;;;;;;;;18.41;48.45;101845.72;5006544;28;1411;-57
2021/04/10 10:42:44;;;;;;;;;;;;;;;18.46;48.65;101873.00;5008423;28;1486;-58
2021/04/10 10:45:10;;;;;;;;;;;;;;;18.37;46.25;101846.88;5008906;28;1888;-63
2021/04/10 10:47:35;;;;;;;;;;;;;;;18.53;45.00;101852.03;5006850;28;1327;-57
2021/04/10 10:50:00;;;;;;;;;;;;;;;18.51;45.67;101833.41;5008274;28;1468;-57
2021/04/10 10:52:26;;;;;;;;;;;;;;;18.55;45.37;101831.38;5007172;28;1437;-57
2021/04/10 10:54:59;;;;;;;;;;;;;;;18.32;50.18;101838.28;5009201;28;1507;-57
2021/04/10 10:57:27;;;;;;;;;;;;;;;18.41;44.29;101814.41;5005950;28;1510;-60
2021/04/10 10:59:54;;;;;;;;;;;;;;;18.48;46.10;101828.22;5001930;28;1363;-57
2021/04/10 11:02:19;;;;;;;;;;;;;;;18.46;45.94;101833.72;5006271;28;1497;-57
2021/04/10 11:04:46;;;;;;;;;;;;;;;18.46;48.09;101832.84;5005926;28;1949;-61
2021/04/10 11:07:13;;;;;;;;;;;;;;;18.51;47.22;101833.41;5002570;28;1457;-58
2021/04/10 11:09:39;;;;;;;;;;;;;;;18.43;47.54;101823.22;4996719;28;1452;-60
2021/04/10 11:12:10;;;;;;;;;;;;;;;18.33;46.49;101813.25;5005622;28;1499;-59
2021/04/10 11:14:41;;;;;;;;;;;;;;;18.27;50.01;101814.53;5005216;28;1205;-59
2021/04/10 11:17:07;;;;;;;;;;;;;;;18.30;50.18;101814.28;5004256;28;1239;-59
2021/04/10 11:19:37;;;;;;;;;;;;;;;18.26;46.10;101802.97;5005712;28;1409;-59
2021/04/10 11:22:04;;;;;;;;;;;;;;;18.24;46.67;101798.66;5004600;28;1429;-57
2021/04/10 11:24:41;;;;;;;;;;;;;;;18.25;47.28;101800.38;5003786;28;1910;-60
2021/04/10 11:27:10;;;;;;;;;;;;;;;18.27;48.26;101799.31;5005567;28;1459;-57
2021/04/10 11:29:37;;;;;;;;;;;;;;;18.27;48.44;101793.94;4999128;28;1523;-60
2021/04/10 11:32:06;;;;;;;;;;;;;;;18.16;46.79;101791.13;5009131;28;1426;-58
2021/04/10 11:34:31;;;;;;;;;;;;;;;18.21;44.05;101780.13;5006533;28;1447;-58
2021/04/10 11:36:58;;;;;;;;;;;;;;;18.18;48.61;101785.69;4998329;28;1594;-61
2021/04/10 11:39:23;;;;;;;;;;;;;;;18.19;47.38;101779.38;4999916;28;1545;-61
2021/04/10 11:41:49;;;;;;;;;;;;;;;18.20;46.21;101775.72;5002369;28;1503;-61
2021/04/10 11:44:15;;;;;;;;;;;;;;;18.29;49.41;101780.47;5004900;28;1542;-60
2021/04/10 11:46:41;;;;;;;;;;;;;;;18.16;45.13;101775.06;5003662;28;1941;-58
2021/04/10 11:49:06;;;;;;;;;;;;;;;18.17;44.23;101770.59;5003733;28;1439;-61
2021/04/10 11:51:32;;;;;;;;;;;;;;;18.20;48.52;101762.34;4997537;28;1630;-61
2021/04/10 11:53:57;;;;;;;;;;;;;;;18.19;46.49;101769.53;4999689;28;1421;-61
2021/04/10 11:56:22;;;;;;;;;;;;;;;18.26;47.16;101767.28;5002517;28;1524;-61
2021/04/10 11:58:59;;;;;;;;;;;;;;;18.27;47.31;101758.28;5004226;28;1551;-58
2021/04/10 12:01:24;;;;;;;;;;;;;;;18.39;47.23;101760.09;5004337;28;1455;-64
2021/04/10 12:03:50;;;;;;;;;;;;;;;18.36;46.93;101754.94;5008165;28;1577;-66
2021/04/10 12:06:45;;;;;;;;;;;;;;;18.26;43.40;101749.41;4999284;28;1894;-56
2021/04/10 12:09:12;;;;;;;;;;;;;;;18.22;43.81;101741.69;4998463;28;1558;-65
2021/04/10 12:11:38;;;;;;;;;;;;;;;18.10;41.73;101738.03;5010211;28;1576;-56
2021/04/10 12:14:08;;;;;;;;;;;;;;;18.16;42.33;101742.09;5006284;28;1487;-57
2021/04/10 12:16:34;;;;;;;;;;;;;;;18.28;43.40;101735.91;5002454;28;1483;-66
2021/04/10 12:18:59;;;;;;;;;;;;;;;18.35;42.82;101717.59;4997109;28;1469;-56
2021/04/10 12:21:24;;;;;;;;;;;;;;;18.39;41.32;101714.59;5003473;28;1540;-56
2021/04/10 12:23:50;;;;;;;;;;;;;;;18.44;42.06;101717.81;5002309;28;1448;-56
2021/04/10 12:26:15;;;;;;;;;;;;;;;18.49;41.58;101722.81;5004957;28;1910;-58
2021/04/10 12:28:41;;;;;;;;;;;;;;;18.48;41.31;101718.41;4999125;28;1688;-55
2021/04/10 12:31:10;;;;;;;;;;;;;;;18.50;41.85;101713.81;5001513;28;1668;-56
2021/04/10 12:33:36;;;;;;;;;;;;;;;18.51;41.36;101715.53;5000880;28;1546;-65
2021/04/10 12:36:02;;;;;;;;;;;;;;;18.46;45.20;101702.47;5010474;28;1259;-66
2021/04/10 12:38:27;;;;;;;;;;;;;;;18.45;46.25;101694.56;5000923;28;1687;-57
2021/04/10 12:40:52;;;;;;;;;;;;;;;18.48;45.18;101705.03;5000890;28;1637;-63
2021/04/10 12:43:18;;;;;;;;;;;;;;;18.37;48.22;101700.44;5006770;28;1555;-58
2021/04/10 12:45:43;;;;;;;;;;;;;;;18.33;44.73;101698.09;5004806;28;1874;-57
2021/04/10 12:48:09;;;;;;;;;;;;;;;17.95;44.12;101632.06;5008813;28;785;-57
2021/04/10 12:50:34;;;;;;;;;;;;;;;18.26;45.82;101685.16;5000116;28;1598;-57
2021/04/10 12:52:59;;;;;;;;;;;;;;;18.24;42.22;101665.66;5002875;28;1538;-57